createdAt,value
2022-12-23T00:01:25.687Z,97670.37
2022-12-23T00:03:58.423Z,97671.29
2022-12-23T00:06:27.485Z,97669.23
2022-12-23T00:08:58.941Z,97663.79
2022-12-23T00:11:29.033Z,97668.11
2022-12-23T00:14:21.235Z,97670.08
2022-12-23T00:16:51.174Z,97665.14
2022-12-23T00:19:19.449Z,97669.71
2022-12-23T00:21:48.771Z,97678.15
2022-12-23T00:24:17.294Z,97679.52
2022-12-23T00:26:45.581Z,97678.20
2022-12-23T00:29:13.949Z,97677.55
2022-12-23T00:31:42.096Z,97674.65
2022-12-23T00:34:12.299Z,97670.91
2022-12-23T00:36:41.053Z,97675.38
2022-12-23T00:39:31.398Z,97674.23
2022-12-23T00:42:17.948Z,97673.91
2022-12-23T00:44:46.180Z,97669.05
2022-12-23T00:47:34.171Z,97671.02
2022-12-23T00:50:02.307Z,97672.46
2022-12-23T00:52:30.645Z,97663.30
2022-12-23T00:54:58.751Z,97660.63
2022-12-23T00:57:27.099Z,97661.45
2022-12-23T00:59:55.095Z,97659.42
2022-12-23T01:02:41.765Z,97656.57
2022-12-23T01:05:29.859Z,97650.36
2022-12-23T01:07:58.283Z,97646.73
2022-12-23T01:10:26.486Z,97646.26
2022-12-23T01:12:54.762Z,97655.56
2022-12-23T01:15:23.513Z,97659.08
2022-12-23T01:17:51.827Z,97653.54
2022-12-23T01:20:20.507Z,97646.10
2022-12-23T01:22:48.611Z,97646.29
2022-12-23T01:25:18.357Z,97648.94
2022-12-23T01:27:46.459Z,97645.68
2022-12-23T01:30:14.674Z,97644.20
2022-12-23T01:32:42.917Z,97637.27
2022-12-23T01:35:11.120Z,97638.91
2022-12-23T01:37:39.355Z,97641.34
2022-12-23T01:40:09.334Z,97639.16
2022-12-23T01:42:47.560Z,97642.77
2022-12-23T01:45:23.843Z,97644.31
2022-12-23T01:48:00.622Z,97637.97
2022-12-23T01:50:38.233Z,97633.79
2022-12-23T01:53:15.168Z,97632.13
2022-12-23T01:55:51.089Z,97629.08
2022-12-23T01:58:32.285Z,97628.48
2022-12-23T02:01:20.616Z,97626.26
2022-12-23T02:03:50.810Z,97627.02
2022-12-23T02:06:42.474Z,97629.33
2022-12-23T02:09:21.783Z,97627.42
2022-12-23T02:11:58.934Z,97619.21
2022-12-23T02:14:57.885Z,97619.10
2022-12-23T02:17:45.856Z,97624.57
2022-12-23T02:20:23.397Z,97623.11
2022-12-23T02:23:13.536Z,97620.84
2022-12-23T02:26:00.734Z,97616.80
2022-12-23T02:28:53.500Z,97620.51
2022-12-23T02:31:42.933Z,97615.35
2022-12-23T02:34:17.037Z,97612.20
2022-12-23T02:36:57.683Z,97609.91
2022-12-23T02:39:54.335Z,97600.78
2022-12-23T02:42:37.417Z,97596.49
2022-12-23T02:45:10.205Z,97598.11
2022-12-23T02:47:44.675Z,97601.77
2022-12-23T02:50:19.451Z,97602.38
2022-12-23T02:52:49.892Z,97603.23
2022-12-23T02:55:26.342Z,97603.55
2022-12-23T02:57:57.793Z,97604.48
2022-12-23T03:00:25.833Z,97605.46
2022-12-23T03:02:54.094Z,97609.18
2022-12-23T03:05:50.120Z,97612.28
2022-12-23T03:08:26.731Z,97613.06
2022-12-23T03:11:08.724Z,97614.73
2022-12-23T03:14:15.005Z,97613.69
2022-12-23T03:16:45.950Z,97611.75
2022-12-23T03:19:32.646Z,97610.66
2022-12-23T03:22:19.691Z,97612.44
2022-12-23T03:24:52.764Z,97608.82
2022-12-23T03:27:41.786Z,97605.88
2022-12-23T03:30:17.243Z,97603.65
2022-12-23T03:33:01.145Z,97604.11
2022-12-23T03:35:43.966Z,97602.83
2022-12-23T03:38:15.033Z,97602.52
2022-12-23T03:40:47.644Z,97609.14
2022-12-23T03:43:23.873Z,97606.64
2022-12-23T03:46:01.057Z,97612.14
2022-12-23T03:48:48.385Z,97613.19
2022-12-23T03:51:39.797Z,97614.33
2022-12-23T03:54:18.086Z,97613.33
2022-12-23T03:56:57.325Z,97610.39
2022-12-23T03:59:27.809Z,97608.95
2022-12-23T04:02:20.581Z,97607.07
2022-12-23T04:04:48.982Z,97606.52
2022-12-23T04:07:22.667Z,97601.33
2022-12-23T04:09:54.873Z,97591.94
2022-12-23T04:12:25.121Z,97598.08
2022-12-23T04:14:53.692Z,97606.84
2022-12-23T04:17:22.039Z,97612.00
2022-12-23T04:19:52.198Z,97615.56
2022-12-23T04:22:20.231Z,97617.99
2022-12-23T04:24:48.306Z,97611.74
2022-12-23T04:27:16.708Z,97610.81
2022-12-23T04:29:44.971Z,97613.95
2022-12-23T04:32:13.027Z,97613.09
2022-12-23T04:34:41.082Z,97617.97
2022-12-23T04:37:10.542Z,97620.64
2022-12-23T04:39:38.702Z,97620.75
2022-12-23T04:42:06.830Z,97619.85
2022-12-23T04:44:34.917Z,97616.72
2022-12-23T04:47:03.223Z,97618.45
2022-12-23T04:49:32.154Z,97620.95
2022-12-23T04:52:00.606Z,97625.15
2022-12-23T04:54:28.780Z,97625.09
2022-12-23T04:56:57.105Z,97627.46
2022-12-23T04:59:25.103Z,97620.21
2022-12-23T05:01:53.400Z,97617.68
2022-12-23T05:04:21.582Z,97618.98
2022-12-23T05:06:50.832Z,97615.23
2022-12-23T05:09:19.101Z,97617.20
2022-12-23T05:11:47.266Z,97613.93
2022-12-23T05:14:15.430Z,97617.50
2022-12-23T05:16:43.624Z,97620.34
2022-12-23T05:19:12.208Z,97622.31
2022-12-23T05:21:40.378Z,97622.27
2022-12-23T05:24:08.869Z,97624.36
2022-12-23T05:26:37.170Z,97622.79
2022-12-23T05:29:06.234Z,97623.11
2022-12-23T05:31:34.418Z,97616.63
2022-12-23T05:34:06.562Z,97614.36
2022-12-23T05:36:35.243Z,97618.11
2022-12-23T05:39:03.623Z,97619.11
2022-12-23T05:41:31.998Z,97626.05
2022-12-23T05:44:00.098Z,97624.86
2022-12-23T05:46:28.139Z,97622.40
2022-12-23T05:48:56.303Z,97623.55
2022-12-23T05:51:24.656Z,97623.83
2022-12-23T05:53:52.991Z,97627.01
2022-12-23T05:56:21.028Z,97627.40
2022-12-23T05:58:49.181Z,97630.40
2022-12-23T06:01:17.231Z,97633.89
2022-12-23T06:03:45.331Z,97635.15
2022-12-23T06:06:14.269Z,97632.98
2022-12-23T06:08:42.285Z,97637.56
2022-12-23T06:11:10.473Z,97640.09
2022-12-23T06:13:38.762Z,97636.02
2022-12-23T06:16:07.332Z,97630.54
2022-12-23T06:18:35.378Z,97636.67
2022-12-23T06:21:03.885Z,97643.29
2022-12-23T06:23:32.065Z,97638.01
2022-12-23T06:26:02.260Z,97633.99
2022-12-23T06:28:30.496Z,97633.59
2022-12-23T06:30:58.763Z,97631.95
2022-12-23T06:33:26.811Z,97630.07
2022-12-23T06:35:55.084Z,97630.88
2022-12-23T06:38:23.273Z,97626.85
2022-12-23T06:40:51.350Z,97623.11
2022-12-23T06:43:19.520Z,97629.80
2022-12-23T06:45:48.809Z,97637.20
2022-12-23T06:48:17.555Z,97640.77
2022-12-23T06:50:46.600Z,97636.48
2022-12-23T06:53:14.760Z,97638.73
2022-12-23T06:55:43.323Z,97641.07
2022-12-23T06:58:11.427Z,97638.02
2022-12-23T07:00:39.672Z,97639.21
2022-12-23T07:03:07.832Z,97638.71
2022-12-23T07:05:37.541Z,97639.94
2022-12-23T07:08:06.292Z,97645.58
2022-12-23T07:10:34.745Z,97643.64
2022-12-23T07:13:02.921Z,97641.77
2022-12-23T07:15:31.060Z,97640.60
2022-12-23T07:17:59.244Z,97637.45
2022-12-23T07:20:27.403Z,97629.10
2022-12-23T07:22:57.230Z,97617.26
2022-12-23T07:25:25.267Z,97617.99
2022-12-23T07:27:55.144Z,97628.05
2022-12-23T07:30:23.680Z,97640.05
2022-12-23T07:32:52.007Z,97639.77
2022-12-23T07:35:20.422Z,97638.74
2022-12-23T07:37:53.873Z,97643.88
2022-12-23T07:40:23.599Z,97645.71
2022-12-23T07:42:56.846Z,97641.88
2022-12-23T07:45:27.603Z,97640.60
2022-12-23T07:47:57.587Z,97630.34
2022-12-23T07:50:27.104Z,97637.11
2022-12-23T07:52:56.278Z,97643.83
2022-12-23T07:55:24.552Z,97639.55
2022-12-23T07:57:53.729Z,97639.73
2022-12-23T08:00:22.334Z,97645.11
2022-12-23T08:02:50.655Z,97644.56
2022-12-23T08:05:19.103Z,97646.16
2022-12-23T08:07:49.925Z,97647.45
2022-12-23T08:10:18.096Z,97649.52
2022-12-23T08:12:46.718Z,97651.40
2022-12-23T08:15:15.067Z,97652.73
2022-12-23T08:17:43.203Z,97657.09
2022-12-23T08:20:12.014Z,97659.91
2022-12-23T08:22:40.199Z,97661.20
2022-12-23T08:25:08.888Z,97659.23
2022-12-23T08:27:37.270Z,97660.98
2022-12-23T08:30:06.453Z,97662.30
2022-12-23T08:32:34.621Z,97662.38
2022-12-23T08:35:02.712Z,97657.63
2022-12-23T08:37:31.174Z,97655.89
2022-12-23T08:39:59.352Z,97658.80
2022-12-23T08:42:27.446Z,97653.77
2022-12-23T08:44:55.586Z,97650.74
2022-12-23T08:47:23.656Z,97650.79
2022-12-23T08:49:51.730Z,97652.56
2022-12-23T08:52:19.908Z,97645.36
2022-12-23T08:54:48.094Z,97638.52
2022-12-23T08:57:16.281Z,97634.88
2022-12-23T08:59:44.520Z,97627.40
2022-12-23T09:02:12.848Z,97631.96
2022-12-23T09:04:41.093Z,97629.45
2022-12-23T09:07:09.155Z,97635.64
2022-12-23T09:09:38.744Z,97640.81
2022-12-23T09:12:07.038Z,97644.46
2022-12-23T09:14:35.276Z,97642.26
2022-12-23T09:17:03.336Z,97637.38
2022-12-23T09:19:31.544Z,97639.91
2022-12-23T09:21:59.700Z,97638.32
2022-12-23T09:24:27.811Z,97635.34
2022-12-23T09:26:55.900Z,97634.59
2022-12-23T09:29:23.914Z,97627.38
2022-12-23T09:31:51.948Z,97625.56
2022-12-23T09:34:20.175Z,97618.45
2022-12-23T09:36:54.918Z,97618.16
2022-12-23T09:39:24.412Z,97615.34
2022-12-23T09:42:01.769Z,97616.86
2022-12-23T09:44:55.366Z,97624.02
2022-12-23T09:47:27.071Z,97617.94
2022-12-23T09:50:01.000Z,97612.35
2022-12-23T09:52:46.629Z,97614.42
2022-12-23T09:55:15.944Z,97612.90
2022-12-23T09:58:01.272Z,97609.92
2022-12-23T10:00:39.030Z,97608.16
2022-12-23T10:03:13.405Z,97604.19
2022-12-23T10:05:59.405Z,97605.73
2022-12-23T10:08:41.830Z,97603.52
2022-12-23T10:11:16.495Z,97597.59
2022-12-23T10:13:56.986Z,97599.11
2022-12-23T10:16:32.498Z,97589.09
2022-12-23T10:19:16.071Z,97590.06
2022-12-23T10:21:56.417Z,97591.02
2022-12-23T10:24:38.842Z,97590.80
2022-12-23T10:27:24.438Z,97586.34
2022-12-23T10:29:52.501Z,97582.32
2022-12-23T10:32:27.253Z,97587.27
2022-12-23T10:34:58.555Z,97590.34
2022-12-23T10:37:45.261Z,97592.67
2022-12-23T10:40:19.617Z,97589.92
2022-12-23T10:42:50.834Z,97581.85
2022-12-23T10:45:31.514Z,97579.72
2022-12-23T10:48:21.064Z,97578.52
2022-12-23T10:50:58.965Z,97575.41
2022-12-23T10:53:46.081Z,97577.14
2022-12-23T10:56:15.209Z,97571.21
2022-12-23T10:58:46.847Z,97568.44
2022-12-23T11:01:26.015Z,97573.08
2022-12-23T11:04:02.614Z,97582.66
2022-12-23T11:06:37.070Z,97579.44
2022-12-23T11:09:11.744Z,97575.02
2022-12-23T11:12:02.060Z,97579.17
2022-12-23T11:14:41.747Z,97574.88
2022-12-23T11:17:31.670Z,97566.10
2022-12-23T11:20:20.362Z,97560.89
2022-12-23T11:22:54.137Z,97563.20
2022-12-23T11:25:32.089Z,97563.98
2022-12-23T11:28:22.177Z,97569.03
2022-12-23T11:30:57.245Z,97559.90
2022-12-23T11:33:28.436Z,97554.52
2022-12-23T11:36:14.412Z,97563.83
2022-12-23T11:38:51.900Z,97562.25
2022-12-23T11:41:27.860Z,97562.00
2022-12-23T11:44:03.724Z,97563.11
2022-12-23T11:46:33.615Z,97560.12
2022-12-23T11:49:14.011Z,97551.02
2022-12-23T11:51:48.639Z,97546.60
2022-12-23T11:54:19.951Z,97540.27
2022-12-23T11:56:51.680Z,97545.06
2022-12-23T11:59:41.420Z,97546.49
2022-12-23T12:02:19.104Z,97549.52
2022-12-23T12:05:02.711Z,97557.69
2022-12-23T12:07:31.632Z,97556.55
2022-12-23T12:10:01.513Z,97552.94
2022-12-23T12:12:30.473Z,97556.88
2022-12-23T12:15:00.545Z,97558.98
2022-12-23T12:17:37.890Z,97561.86
2022-12-23T12:20:06.593Z,97565.11
2022-12-23T12:22:54.739Z,97566.89
2022-12-23T12:25:53.745Z,97575.70
2022-12-23T12:28:26.316Z,97579.65
2022-12-23T12:31:03.370Z,97575.11
2022-12-23T12:33:39.808Z,97569.28
2022-12-23T12:36:33.282Z,97569.95
2022-12-23T12:39:01.364Z,97571.48
2022-12-23T12:41:37.015Z,97578.55
2022-12-23T12:44:22.155Z,97579.70
2022-12-23T12:46:56.095Z,97581.64
2022-12-23T12:49:35.899Z,97582.34
2022-12-23T12:52:12.009Z,97578.98
2022-12-23T12:54:56.549Z,97581.52
2022-12-23T12:57:25.201Z,97576.02
2022-12-23T13:00:03.567Z,97569.61
2022-12-23T13:02:43.974Z,97574.35
2022-12-23T13:05:41.594Z,97577.19
2022-12-23T13:08:43.193Z,97577.62
2022-12-23T13:11:34.470Z,97568.97
2022-12-23T13:14:22.770Z,97567.50
2022-12-23T13:17:09.889Z,97566.27
2022-12-23T13:19:56.874Z,97565.92
2022-12-23T13:22:32.631Z,97564.38
2022-12-23T13:25:05.550Z,97567.58
2022-12-23T13:28:15.939Z,97571.02
2022-12-23T13:30:51.563Z,97574.70
2022-12-23T13:33:39.476Z,97576.25
2022-12-23T13:36:40.110Z,97574.73
2022-12-23T13:39:32.711Z,97578.92
2022-12-23T13:42:05.963Z,97576.63
2022-12-23T13:44:35.478Z,97577.25
2022-12-23T13:47:22.392Z,97572.92
2022-12-23T13:49:50.370Z,97574.13
2022-12-23T13:52:32.990Z,97579.58
2022-12-23T13:55:26.147Z,97582.34
2022-12-23T13:58:13.633Z,97584.71
2022-12-23T14:00:41.727Z,97582.02
2022-12-23T14:03:09.927Z,97578.04
2022-12-23T14:05:38.961Z,97578.98
2022-12-23T14:08:19.760Z,97578.90
2022-12-23T14:10:59.120Z,97584.46
2022-12-23T14:13:30.713Z,97584.04
2022-12-23T14:16:40.209Z,97590.97
2022-12-23T14:19:30.121Z,97590.54
2022-12-23T14:22:19.868Z,97585.19
2022-12-23T14:24:59.824Z,97584.62
2022-12-23T14:27:42.771Z,97583.64
2022-12-23T14:30:36.410Z,97583.81
2022-12-23T14:33:38.181Z,97580.17
2022-12-23T14:36:26.931Z,97578.99
2022-12-23T14:39:13.530Z,97572.63
2022-12-23T14:41:47.742Z,97573.58
2022-12-23T14:44:43.792Z,97572.66
2022-12-23T14:47:35.702Z,97578.92
2022-12-23T14:50:34.376Z,97578.55
2022-12-23T14:53:24.985Z,97567.00
2022-12-23T14:56:19.039Z,97551.91
2022-12-23T14:59:24.196Z,97551.75
2022-12-23T15:02:14.776Z,97559.21
2022-12-23T15:04:50.978Z,97558.32
2022-12-23T15:07:21.981Z,97566.23
2022-12-23T15:10:02.788Z,97567.94
2022-12-23T15:12:35.963Z,97561.36
2022-12-23T15:15:21.554Z,97567.27
2022-12-23T15:18:12.112Z,97579.05
2022-12-23T15:20:40.240Z,97580.19
2022-12-23T15:23:10.202Z,97576.02
2022-12-23T15:25:46.095Z,97572.40
2022-12-23T15:28:19.734Z,97566.79
2022-12-23T15:30:52.381Z,97567.98
2022-12-23T15:36:14.633Z,97559.71
2022-12-23T15:38:42.681Z,97553.92
2022-12-23T15:41:18.794Z,97545.77
2022-12-23T15:43:47.009Z,97542.34
2022-12-23T15:46:29.925Z,97541.14
2022-12-23T15:48:59.042Z,97546.08
2022-12-23T15:52:05.914Z,97549.38
2022-12-23T15:54:35.224Z,97551.08
2022-12-23T15:57:04.633Z,97550.73
2022-12-23T15:59:37.491Z,97544.39
2022-12-23T16:05:45.711Z,97538.34
2022-12-23T16:08:15.354Z,97545.20
2022-12-23T16:11:11.864Z,97551.63
2022-12-23T16:13:46.675Z,97549.29
2022-12-23T16:16:38.123Z,97546.45
2022-12-23T16:19:26.775Z,97532.98
2022-12-23T16:21:55.152Z,97531.23
2022-12-23T16:24:23.190Z,97531.10
2022-12-23T16:26:54.519Z,97524.69
2022-12-23T16:29:22.630Z,97519.92
2022-12-23T16:31:57.435Z,97521.64
2022-12-23T16:34:31.583Z,97522.09
2022-12-23T16:36:59.843Z,97520.78
2022-12-23T16:39:28.116Z,97521.81
2022-12-23T16:41:56.290Z,97522.55
2022-12-23T16:44:24.316Z,97525.63
2022-12-23T16:46:52.452Z,97523.95
2022-12-23T16:49:27.909Z,97526.40
2022-12-23T16:51:56.268Z,97516.95
2022-12-23T16:54:24.520Z,97524.33
2022-12-23T16:56:52.604Z,97525.02
2022-12-23T16:59:21.189Z,97522.34
2022-12-23T17:01:49.384Z,97515.80
2022-12-23T17:04:17.552Z,97511.11
2022-12-23T17:06:46.616Z,97509.13
2022-12-23T17:09:14.865Z,97509.70
2022-12-23T17:11:53.268Z,97512.34
2022-12-23T17:14:24.321Z,97507.34
2022-12-23T17:16:53.118Z,97504.30
2022-12-23T17:19:27.774Z,97504.55
2022-12-23T17:22:03.051Z,97501.73
2022-12-23T17:24:31.607Z,97499.94
2022-12-23T17:26:59.663Z,97495.26
2022-12-23T17:29:28.463Z,97501.27
2022-12-23T17:31:56.762Z,97509.50
2022-12-23T17:34:24.992Z,97516.27
2022-12-23T17:36:53.263Z,97513.77
2022-12-23T17:39:22.356Z,97516.45
2022-12-23T17:41:50.528Z,97515.80
2022-12-23T17:44:18.932Z,97513.84
2022-12-23T17:46:47.567Z,97514.71
2022-12-23T17:49:15.740Z,97516.48
2022-12-23T17:51:44.256Z,97517.78
2022-12-23T17:54:22.957Z,97522.64
2022-12-23T17:56:52.713Z,97527.05
2022-12-23T17:59:21.947Z,97526.42
2022-12-23T18:01:50.696Z,97523.77
2022-12-23T18:04:19.133Z,97518.65
2022-12-23T18:06:47.327Z,97517.25
2022-12-23T18:09:16.882Z,97514.63
2022-12-23T18:11:48.134Z,97509.21
2022-12-23T18:14:22.009Z,97506.86
2022-12-23T18:16:50.323Z,97501.19
2022-12-23T18:19:20.861Z,97499.44
2022-12-23T18:21:50.678Z,97495.10
2022-12-23T18:24:18.964Z,97498.66
2022-12-23T18:26:47.824Z,97498.56
2022-12-23T18:29:15.928Z,97498.05
2022-12-23T18:31:51.391Z,97493.44
2022-12-23T18:34:21.317Z,97479.94
2022-12-23T18:36:51.963Z,97478.21
2022-12-23T18:39:21.112Z,97477.58
2022-12-23T18:41:49.280Z,97477.70
2022-12-23T18:44:22.957Z,97474.92
2022-12-23T18:46:51.062Z,97477.02
2022-12-23T18:49:19.356Z,97479.61
2022-12-23T18:51:47.671Z,97479.12
2022-12-23T18:54:16.678Z,97483.95
2022-12-23T18:56:45.301Z,97485.31
2022-12-23T18:59:22.816Z,97483.91
2022-12-23T19:01:52.641Z,97491.84
2022-12-23T19:04:20.893Z,97497.52
2022-12-23T19:06:49.020Z,97498.28
2022-12-23T19:09:20.285Z,97496.21
2022-12-23T19:11:50.246Z,97489.16
2022-12-23T19:14:18.602Z,97485.26
2022-12-23T19:16:51.501Z,97483.19
2022-12-23T19:19:21.906Z,97481.91
2022-12-23T19:21:50.071Z,97479.27
2022-12-23T19:24:18.235Z,97475.21
2022-12-23T19:26:46.584Z,97479.77
2022-12-23T19:29:14.762Z,97487.44
2022-12-23T19:31:43.005Z,97486.07
2022-12-23T19:34:14.885Z,97481.04
2022-12-23T19:36:44.668Z,97477.84
2022-12-23T19:39:16.824Z,97481.21
2022-12-23T19:41:45.909Z,97480.35
2022-12-23T19:44:14.755Z,97486.62
2022-12-23T19:46:42.990Z,97486.69
2022-12-23T19:49:17.479Z,97484.41
2022-12-23T19:51:49.025Z,97481.41
2022-12-23T19:54:17.746Z,97474.93
2022-12-23T19:56:45.870Z,97479.00
2022-12-23T19:59:14.141Z,97480.83
2022-12-23T20:01:42.382Z,97479.29
2022-12-23T20:04:11.099Z,97471.55
2022-12-23T20:06:41.109Z,97485.19
2022-12-23T20:09:12.614Z,97484.13
2022-12-23T20:11:43.900Z,97481.20
2022-12-23T20:14:14.170Z,97474.27
2022-12-23T20:16:42.460Z,97470.13
2022-12-23T20:19:11.437Z,97470.59
2022-12-23T20:21:39.571Z,97470.64
2022-12-23T20:24:08.354Z,97478.30
2022-12-23T20:26:36.831Z,97478.03
2022-12-23T20:29:05.556Z,97478.32
2022-12-23T20:31:37.611Z,97480.01
2022-12-23T20:34:08.325Z,97484.29
2022-12-23T20:36:36.985Z,97482.08
2022-12-23T20:39:06.282Z,97481.55
2022-12-23T20:41:34.674Z,97482.96
2022-12-23T20:44:34.017Z,97479.94
2022-12-23T20:46:51.729Z,97483.81
2022-12-23T20:49:19.944Z,97492.70
2022-12-23T20:51:47.965Z,97497.34
2022-12-23T20:54:16.123Z,97499.81
2022-12-23T20:56:44.305Z,97498.08
2022-12-23T20:59:12.688Z,97498.13
2022-12-23T21:01:41.710Z,97504.58
2022-12-23T21:04:13.030Z,97510.33
2022-12-23T21:06:41.547Z,97510.73
2022-12-23T21:09:12.380Z,97511.55
2022-12-23T21:11:43.438Z,97513.23
2022-12-23T21:14:12.925Z,97511.23
2022-12-23T21:16:41.467Z,97510.72
2022-12-23T21:19:15.425Z,97508.73
2022-12-23T21:21:44.107Z,97516.03
2022-12-23T21:24:12.783Z,97518.89
2022-12-23T21:26:41.212Z,97515.15
2022-12-23T21:29:11.243Z,97514.05
2022-12-23T21:31:41.209Z,97512.51
2022-12-23T21:34:14.472Z,97512.55
2022-12-23T21:36:43.094Z,97518.89
2022-12-23T21:39:15.693Z,97521.95
2022-12-23T21:41:44.470Z,97509.57
2022-12-23T21:44:14.937Z,97502.66
2022-12-23T21:46:43.515Z,97498.56
2022-12-23T21:49:11.819Z,97498.23
2022-12-23T21:51:41.553Z,97502.42
2022-12-23T21:54:11.500Z,97505.41
2022-12-23T21:56:41.399Z,97499.92
2022-12-23T21:59:14.841Z,97497.40
2022-12-23T22:01:44.068Z,97497.52
2022-12-23T22:04:13.035Z,97493.46
2022-12-23T22:06:46.227Z,97486.30
2022-12-23T22:09:17.905Z,97485.47
2022-12-23T22:11:47.131Z,97485.59
2022-12-23T22:14:17.561Z,97482.34
2022-12-23T22:16:45.888Z,97481.41
2022-12-23T22:19:14.692Z,97489.41
2022-12-23T22:21:42.975Z,97491.38
2022-12-23T22:24:11.573Z,97488.48
2022-12-23T22:26:40.464Z,97485.64
2022-12-23T22:29:08.576Z,97482.60
2022-12-23T22:31:47.100Z,97475.28
2022-12-23T22:34:18.402Z,97476.08
2022-12-23T22:36:47.477Z,97475.66
2022-12-23T22:39:21.206Z,97470.23
2022-12-23T22:41:51.559Z,97476.27
2022-12-23T22:44:21.261Z,97480.34
2022-12-23T22:46:49.494Z,97474.68
2022-12-23T22:49:18.122Z,97471.95
2022-12-23T22:51:46.356Z,97468.04
2022-12-23T22:54:14.737Z,97462.21
2022-12-23T22:56:43.111Z,97456.28
2022-12-23T22:59:23.565Z,97450.98
2022-12-23T23:01:53.235Z,97446.12
2022-12-23T23:04:21.570Z,97446.31
2022-12-23T23:06:49.946Z,97450.69
2022-12-23T23:09:20.666Z,97445.33
2022-12-23T23:11:50.387Z,97452.81
2022-12-23T23:14:18.937Z,97451.02
2022-12-23T23:16:47.433Z,97454.16
2022-12-23T23:19:17.145Z,97462.64
2022-12-23T23:21:45.342Z,97459.12
2022-12-23T23:24:13.648Z,97454.39
2022-12-23T23:26:41.766Z,97446.08
2022-12-23T23:29:09.874Z,97441.31
2022-12-23T23:31:42.990Z,97439.27
2022-12-23T23:34:13.021Z,97443.46
2022-12-23T23:36:41.662Z,97440.49
2022-12-23T23:39:12.351Z,97447.55
2022-12-23T23:41:41.589Z,97442.27
2022-12-23T23:44:10.241Z,97444.55
2022-12-23T23:46:39.237Z,97445.88
2022-12-23T23:49:07.369Z,97444.70
2022-12-23T23:51:35.453Z,97453.89
2022-12-23T23:54:03.643Z,97459.52
2022-12-23T23:56:37.877Z,97456.88
2022-12-23T23:59:09.019Z,97460.98
